21.6°F
Current conditions from King Hill
Updated every 5 minutes
 
  Sunday December 21, 2014

Station Historical Data
Daily Summary for July 5, 2011 Units:  Metric    English   Both
« Previous Day
Next Day »
Daily Weekly Monthly Yearly Custom
  High: Low: Average:
Temperature: 29 °C 15.5 °C 22.6 °C
Dew Point: 19.6 °C 12.8 °C 16.1 °C
Humidity: 93% 44% 68%
Wind Speed: 8km/h 1.6km/h 2.9km/h
Wind Gust: 16.1km/h - -
Wind- - WSW
Pressure: 1010.7 hPa 1008.4 hPa -
Precipitation: 0 mm    
Historical Graphs
 
 
Tabular Data for July 5, 2011
Time Temperature Dew Point Pressure Wind Wind Speed Wind Gust Humidity Daily Rainfall
00:05 17.9 °C 14.3 °C 1008.4 hPa West 1.6 km/h 6.4 km/h 79% 0 mm
00:10 17.8 °C 14.3 °C 1008.4 hPa West 1.6 km/h 6.4 km/h 80% 0 mm
00:15 17.7 °C 14.4 °C 1008.4 hPa Calm   4.8 km/h 81% 0 mm
00:20 17.7 °C 14.4 °C 1008.4 hPa Calm     81% 0 mm
00:25 17.6 °C 14.1 °C 1008.4 hPa Calm     80% 0 mm
00:30 17.6 °C 14.3 °C 1008.7 hPa Calm   1.6 km/h 81% 0 mm
00:35 17.8 °C 14.3 °C 1008.4 hPa Calm   1.6 km/h 80% 0 mm
00:40 18 °C 14.1 °C 1008.4 hPa WSW 3.2 km/h 11.3 km/h 78% 0 mm
00:45 18.8 °C 14.3 °C 1008.4 hPa WSW 1.6 km/h 11.3 km/h 75% 0 mm
00:50 19.4 °C 14.4 °C 1008.4 hPa Calm   8 km/h 73% 0 mm
00:55 19.8 °C 14.4 °C 1008.4 hPa Calm   8 km/h 71% 0 mm
01:00 20.1 °C 14 °C 1008.4 hPa WSW 4.8 km/h 14.5 km/h 68% 0 mm
01:05 20.4 °C 14.5 °C 1008.4 hPa Calm   14.5 km/h 69% 0 mm
01:10 20.4 °C 14.3 °C 1008.4 hPa West 1.6 km/h 8 km/h 68% 0 mm
01:15 20.5 °C 14.4 °C 1008.4 hPa Calm   11.3 km/h 68% 0 mm
01:20 20.6 °C 14.2 °C 1008.4 hPa WSW 4.8 km/h 16.1 km/h 67% 0 mm
01:25 20.6 °C 14.2 °C 1008.4 hPa WSW 1.6 km/h 16.1 km/h 67% 0 mm
01:30 20.6 °C 14 °C 1008.7 hPa West 1.6 km/h 12.9 km/h 66% 0 mm
01:35 20.6 °C 14.2 °C 1008.7 hPa Calm   11.3 km/h 67% 0 mm
01:40 20.4 °C 14.1 °C 1008.7 hPa Calm   6.4 km/h 67% 0 mm
01:45 20.3 °C 13.9 °C 1008.7 hPa Calm   6.4 km/h 67% 0 mm
01:50 20.2 °C 13.9 °C 1008.7 hPa West 1.6 km/h 6.4 km/h 67% 0 mm
01:55 20.2 °C 13.8 °C 1008.7 hPa Calm   8 km/h 67% 0 mm
02:00 20.1 °C 14 °C 1008.7 hPa Calm   8 km/h 68% 0 mm
02:05 20.1 °C 14 °C 1008.7 hPa West 1.6 km/h 8 km/h 68% 0 mm
02:10 20.1 °C 14 °C 1009 hPa Calm   8 km/h 68% 0 mm
02:15 20.1 °C 13.7 °C 1008.7 hPa Calm   6.4 km/h 67% 0 mm
02:20 20.1 °C 13.8 °C 1008.7 hPa Calm   8 km/h 67% 0 mm
02:25 20.1 °C 13.8 °C 1008.7 hPa West 1.6 km/h 8 km/h 67% 0 mm
02:30 20.1 °C 14 °C 1008.7 hPa West 1.6 km/h 8 km/h 68% 0 mm
02:35 20 °C 13.9 °C 1008.7 hPa Calm   8 km/h 68% 0 mm
02:40 19.7 °C 13.7 °C 1008.7 hPa Calm   4.8 km/h 68% 0 mm
02:45 19.5 °C 13.4 °C 1008.7 hPa Calm   3.2 km/h 68% 0 mm
02:50 19.2 °C 13.8 °C 1009 hPa Calm   1.6 km/h 71% 0 mm
02:55 18.7 °C 13.3 °C 1008.7 hPa West 1.6 km/h 4.8 km/h 71% 0 mm
03:00 18.4 °C 13.7 °C 1009 hPa Calm   4.8 km/h 74% 0 mm
03:05 18.1 °C 13.4 °C 1009 hPa West 1.6 km/h 6.4 km/h 74% 0 mm
03:10 17.8 °C 13.6 °C 1008.7 hPa Calm   6.4 km/h 76% 0 mm
03:15 17.5 °C 13.4 °C 1009 hPa West 1.6 km/h 6.4 km/h 77% 0 mm
03:20 17.3 °C 13.7 °C 1008.7 hPa Calm   6.4 km/h 79% 0 mm
03:25 17.2 °C 13.7 °C 1008.7 hPa WSW 3.2 km/h 6.4 km/h 80% 0 mm
03:30 17.1 °C 13.6 °C 1009 hPa Calm   6.4 km/h 80% 0 mm
03:35 17.2 °C 13.7 °C 1008.7 hPa Calm   8 km/h 80% 0 mm
03:40 17.2 °C 13.7 °C 1008.7 hPa Calm   8 km/h 80% 0 mm
03:45 17.2 °C 13.6 °C 1008.7 hPa Calm   1.6 km/h 79% 0 mm
03:50 17.1 °C 13.4 °C 1008.7 hPa Calm   1.6 km/h 79% 0 mm
03:55 16.9 °C 13.3 °C 1008.7 hPa Calm   1.6 km/h 79% 0 mm
04:00 16.8 °C 13.4 °C 1009 hPa Calm   1.6 km/h 80% 0 mm
04:05 16.7 °C 13.4 °C 1009 hPa Calm   1.6 km/h 81% 0 mm
04:10 16.6 °C 13.3 °C 1009 hPa WSW 1.6 km/h 4.8 km/h 81% 0 mm
04:15 16.4 °C 13.1 °C 1009 hPa Calm   4.8 km/h 81% 0 mm
04:20 16.4 °C 13.1 °C 1009 hPa Calm   1.6 km/h 81% 0 mm
04:25 16.4 °C 12.9 °C 1009 hPa Calm   1.6 km/h 80% 0 mm
04:30 16.4 °C 12.9 °C 1009 hPa Calm   3.2 km/h 80% 0 mm
04:35 16.3 °C 12.8 °C 1009 hPa Calm   3.2 km/h 80% 0 mm
04:40 16.2 °C 13.2 °C 1009 hPa Calm   3.2 km/h 82% 0 mm
04:45 16.2 °C 13.1 °C 1009 hPa WSW 1.6 km/h 8 km/h 82% 0 mm
04:50 16.1 °C 13.2 °C 1009.4 hPa WSW 3.2 km/h 8 km/h 83% 0 mm
04:55 16.2 °C 13.4 °C 1009.4 hPa Calm   8 km/h 84% 0 mm
05:00 16.2 °C 13.4 °C 1009.4 hPa Calm   8 km/h 84% 0 mm
05:05 16 °C 13.5 °C 1009.4 hPa Calm   1.6 km/h 85% 0 mm
05:10 15.9 °C 13.6 °C 1009.4 hPa Calm   8 km/h 86% 0 mm
05:15 16 °C 13.7 °C 1009.4 hPa WSW 3.2 km/h 8 km/h 86% 0 mm
05:20 16.2 °C 13.8 °C 1009.4 hPa SW 1.6 km/h 8 km/h 86% 0 mm
05:25 16.2 °C 13.9 °C 1009.4 hPa Calm   8 km/h 86% 0 mm
05:30 16.4 °C 13.9 °C 1009.4 hPa SW 1.6 km/h 6.4 km/h 85% 0 mm
05:40 16.5 °C 13.9 °C 1009.4 hPa Calm   1.6 km/h 85% 0 mm
05:45 16.4 °C 13.9 °C 1009.4 hPa Calm   1.6 km/h 85% 0 mm
05:50 16.3 °C 13.9 °C 1009.7 hPa Calm   1.6 km/h 86% 0 mm
05:55 16.1 °C 13.7 °C 1009.7 hPa Calm     86% 0 mm
06:00 15.9 °C 13.8 °C 1009.7 hPa Calm     87% 0 mm
06:05 15.8 °C 13.6 °C 1009.7 hPa Calm   1.6 km/h 87% 0 mm
06:10 15.7 °C 13.5 °C 1009.7 hPa Calm   1.6 km/h 87% 0 mm
06:15 15.6 °C 13.6 °C 1009.7 hPa Calm     88% 0 mm
06:20 15.5 °C 13.7 °C 1009.7 hPa Calm     89% 0 mm
06:30 15.5 °C 13.9 °C 1009.4 hPa Calm   3.2 km/h 90% 0 mm
06:35 15.8 °C 14.3 °C 1009.4 hPa Calm   6.4 km/h 91% 0 mm
06:40 16.3 °C 15.2 °C 1009.7 hPa Calm   6.4 km/h 93% 0 mm
06:45 16.6 °C 15.5 °C 1009.7 hPa Calm   6.4 km/h 93% 0 mm
06:50 16.9 °C 15.6 °C 1009.7 hPa Calm   6.4 km/h 92% 0 mm
06:55 17.2 °C 15.8 °C 1009.7 hPa Calm   8 km/h 92% 0 mm
07:00 17.4 °C 15.9 °C 1009.7 hPa Calm   8 km/h 91% 0 mm
07:05 17.8 °C 16.3 °C 1010 hPa Calm   6.4 km/h 91% 0 mm
07:10 18.2 °C 16.3 °C 1010 hPa SSW 1.6 km/h 9.7 km/h 89% 0 mm
07:15 18.6 °C 16.4 °C 1010 hPa SSW 4.8 km/h 11.3 km/h 87% 0 mm
07:20 19 °C 16.6 °C 1010 hPa SW 4.8 km/h 11.3 km/h 86% 0 mm
07:25 19.2 °C 16.4 °C 1010 hPa SSW 3.2 km/h 11.3 km/h 84% 0 mm
07:30 19.4 °C 16.4 °C 1010 hPa SW 3.2 km/h 11.3 km/h 83% 0 mm
07:35 19.4 °C 16.5 °C 1010 hPa SSW 1.6 km/h 11.3 km/h 83% 0 mm
07:40 19.4 °C 16.5 °C 1010 hPa Calm   11.3 km/h 83% 0 mm
07:45 19.4 °C 16.5 °C 1010 hPa SSW 1.6 km/h 12.9 km/h 83% 0 mm
07:50 19.5 °C 16.3 °C 1010.4 hPa SW 4.8 km/h 12.9 km/h 82% 0 mm
07:55 19.6 °C 16.7 °C 1010.4 hPa SW 1.6 km/h 12.9 km/h 83% 0 mm
08:00 19.8 °C 16.6 °C 1010.4 hPa SSW 3.2 km/h 11.3 km/h 82% 0 mm
08:05 19.9 °C 16.8 °C 1010.4 hPa SSW 3.2 km/h 11.3 km/h 82% 0 mm
08:10 20.2 °C 17 °C 1010.4 hPa SW 1.6 km/h 11.3 km/h 82% 0 mm
08:15 20.4 °C 16.8 °C 1010.4 hPa SSW 4.8 km/h 11.3 km/h 80% 0 mm
08:20 20.7 °C 16.9 °C 1010.4 hPa SSW 3.2 km/h 11.3 km/h 79% 0 mm
08:25 21 °C 17 °C 1010.4 hPa SSW 4.8 km/h 14.5 km/h 78% 0 mm
08:30 21.3 °C 17.3 °C 1010.4 hPa SSW 4.8 km/h 14.5 km/h 78% 0 mm
08:35 21.4 °C 17.4 °C 1010.4 hPa SW 3.2 km/h 16.1 km/h 78% 0 mm
08:45 21.9 °C 17.5 °C 1010.4 hPa SW 1.6 km/h 12.9 km/h 76% 0 mm
08:50 22.1 °C 17.6 °C 1010.4 hPa SW 3.2 km/h 12.9 km/h 76% 0 mm
08:55 22.3 °C 17.2 °C 1010.7 hPa SW 8 km/h 16.1 km/h 73% 0 mm
09:00 22.5 °C 17.6 °C 1010.4 hPa WSW 1.6 km/h 16.1 km/h 74% 0 mm
09:05 22.8 °C 17.5 °C 1010.7 hPa SW 6.4 km/h 14.5 km/h 72% 0 mm
09:10 23.1 °C 17.9 °C 1010.7 hPa SW 4.8 km/h 14.5 km/h 73% 0 mm
09:15 23.2 °C 17.9 °C 1010.7 hPa Calm   12.9 km/h 72% 0 mm
09:20 23.7 °C 17.9 °C 1010.7 hPa SSW 1.6 km/h 11.3 km/h 70% 0 mm
09:25 23.9 °C 17.9 °C 1010.7 hPa SSW 3.2 km/h 16.1 km/h 69% 0 mm
09:30 24.1 °C 17.6 °C 1010.4 hPa SW 1.6 km/h 16.1 km/h 67% 0 mm
09:35 24.2 °C 17.2 °C 1010.4 hPa SW 6.4 km/h 14.5 km/h 65% 0 mm
09:40 24.3 °C 18 °C 1010.4 hPa Calm   12.9 km/h 68% 0 mm
09:45 24.6 °C 18.3 °C 1010.4 hPa SW 1.6 km/h 8 km/h 68% 0 mm
09:50 24.7 °C 18.4 °C 1010.4 hPa Calm   12.9 km/h 68% 0 mm
09:55 24.7 °C 18.1 °C 1010.4 hPa SW 3.2 km/h 12.9 km/h 67% 0 mm
10:00 24.6 °C 18.1 °C 1010.4 hPa South 3.2 km/h 12.9 km/h 67% 0 mm
10:05 24.7 °C 17.9 °C 1010.4 hPa South 1.6 km/h 12.9 km/h 66% 0 mm
10:15 25 °C 17.9 °C 1010.4 hPa Calm   11.3 km/h 65% 0 mm
10:20 25.3 °C 18.5 °C 1010.4 hPa Calm   9.7 km/h 66% 0 mm
10:25 25.3 °C 17.7 °C 1010.4 hPa South 1.6 km/h 12.9 km/h 63% 0 mm
10:30 25.2 °C 17.6 °C 1010.7 hPa SSW 3.2 km/h 12.9 km/h 63% 0 mm
10:35 25 °C 17.5 °C 1010.4 hPa WSW 4.8 km/h 12.9 km/h 63% 0 mm
10:40 25.2 °C 17.4 °C 1010.4 hPa SSW 6.4 km/h 16.1 km/h 62% 0 mm
10:45 25.1 °C 17.3 °C 1010.4 hPa SW 4.8 km/h 16.1 km/h 62% 0 mm
10:50 25.2 °C 17.6 °C 1010.4 hPa West 3.2 km/h 14.5 km/h 63% 0 mm
10:55 25.3 °C 17.7 °C 1010.4 hPa Calm   14.5 km/h 63% 0 mm
11:00 25.6 °C 16.9 °C 1010.4 hPa SSW 1.6 km/h 11.3 km/h 59% 0 mm
11:05 25.8 °C 17.7 °C 1010.4 hPa WSW 1.6 km/h 9.7 km/h 61% 0 mm
11:10 25.9 °C 17.6 °C 1010.4 hPa Calm   9.7 km/h 60% 0 mm
11:15 26.1 °C 17.9 °C 1010 hPa Calm   9.7 km/h 61% 0 mm
11:20 26.4 °C 18.1 °C 1010 hPa West 1.6 km/h 9.7 km/h 60% 0 mm
11:25 26.7 °C 18.6 °C 1010 hPa Calm   9.7 km/h 61% 0 mm
11:30 26.7 °C 15.7 °C 1010 hPa West 4.8 km/h 9.7 km/h 51% 0 mm
11:35 26.6 °C 17.3 °C 1010 hPa Calm   9.7 km/h 57% 0 mm
11:40 26.7 °C 18.3 °C 1010 hPa NW 1.6 km/h 9.7 km/h 60% 0 mm
11:45 26.9 °C 17.1 °C 1010 hPa Calm   8 km/h 55% 0 mm
11:50 27 °C 18.1 °C 1010 hPa Calm   8 km/h 58% 0 mm
11:55 27.1 °C 16.1 °C 1010 hPa West 4.8 km/h 9.7 km/h 51% 0 mm
12:00 27.1 °C 17.9 °C 1010 hPa Calm   9.7 km/h 57% 0 mm
12:05 27.3 °C 18.6 °C 1010 hPa SSW 3.2 km/h 11.3 km/h 59% 0 mm
12:10 27.3 °C 17.2 °C 1009.7 hPa Calm   11.3 km/h 54% 0 mm
12:15 27.3 °C 16.6 °C 1009.7 hPa Calm   9.7 km/h 52% 0 mm
12:20 27.6 °C 17.5 °C 1010 hPa Calm   9.7 km/h 54% 0 mm
12:25 27.6 °C 15.6 °C 1009.7 hPa West 3.2 km/h 8 km/h 48% 0 mm
12:30 27.6 °C 17.7 °C 1009.7 hPa Calm   11.3 km/h 55% 0 mm
12:40 27.8 °C 18 °C 1010 hPa SW 1.6 km/h 11.3 km/h 55% 0 mm
12:45 27.8 °C 16.2 °C 1010 hPa SW 1.6 km/h 11.3 km/h 49% 0 mm
12:50 27.9 °C 17.7 °C 1009.7 hPa West 4.8 km/h 14.5 km/h 54% 0 mm
12:55 27.9 °C 17.1 °C 1009.7 hPa Calm   14.5 km/h 52% 0 mm
13:00 28.1 °C 16.3 °C 1009.7 hPa SSW 1.6 km/h 8 km/h 49% 0 mm
13:05 27.9 °C 14.9 °C 1009.7 hPa SW 3.2 km/h 8 km/h 45% 0 mm
13:10 27.8 °C 15.1 °C 1009.7 hPa SW 4.8 km/h 12.9 km/h 46% 0 mm
13:15 27.8 °C 17.9 °C 1009.7 hPa Calm   12.9 km/h 55% 0 mm
13:20 27.8 °C 17.1 °C 1009.7 hPa SW 3.2 km/h 11.3 km/h 52% 0 mm
13:25 28.1 °C 16.4 °C 1009.7 hPa Calm   9.7 km/h 49% 0 mm
13:30 28.2 °C 16.1 °C 1009.7 hPa WNW 4.8 km/h 12.9 km/h 48% 0 mm
13:35 28.3 °C 17.6 °C 1009.7 hPa Calm   12.9 km/h 52% 0 mm
13:40 28.4 °C 16.1 °C 1009.7 hPa SW 1.6 km/h 16.1 km/h 47% 0 mm
13:45 27.9 °C 16.2 °C 1009.7 hPa SW 4.8 km/h 16.1 km/h 49% 0 mm
13:50 27.8 °C 17.1 °C 1009.4 hPa SW 4.8 km/h 11.3 km/h 52% 0 mm
13:55 27.9 °C 16.8 °C 1009.4 hPa WSW 1.6 km/h 11.3 km/h 51% 0 mm
14:00 28.2 °C 16.8 °C 1009.4 hPa Calm   12.9 km/h 50% 0 mm
14:05 28.4 °C 18.8 °C 1009.4 hPa West 6.4 km/h 14.5 km/h 56% 0 mm
14:10 28.2 °C 17.1 °C 1009.4 hPa SSW 6.4 km/h 16.1 km/h 51% 0 mm
14:15 27.9 °C 17.7 °C 1009.4 hPa SW 3.2 km/h 16.1 km/h 54% 0 mm
14:20 27.9 °C 18.9 °C 1009.4 hPa SW 4.8 km/h 14.5 km/h 58% 0 mm
14:25 28.3 °C 19.3 °C 1009.4 hPa SW 3.2 km/h 14.5 km/h 58% 0 mm
14:30 28.5 °C 15.4 °C 1009.4 hPa Calm   11.3 km/h 45% 0 mm
14:35 28.7 °C 15.9 °C 1009.4 hPa SW 3.2 km/h 14.5 km/h 46% 0 mm
14:40 28.8 °C 18 °C 1009.4 hPa NW 4.8 km/h 14.5 km/h 52% 0 mm
14:45 29 °C 16.6 °C 1009.4 hPa WNW 4.8 km/h 12.9 km/h 47% 0 mm
14:55 28.7 °C 16.3 °C 1009.4 hPa Calm   14.5 km/h 47% 0 mm
15:00 28.9 °C 16.5 °C 1009.4 hPa WNW 4.8 km/h 14.5 km/h 47% 0 mm
15:05 28.9 °C 15.8 °C 1009.4 hPa WNW 1.6 km/h 9.7 km/h 45% 0 mm
15:10 28.5 °C 17.1 °C 1009.7 hPa Calm   9.7 km/h 50% 0 mm
15:15 28.3 °C 16.2 °C 1009.7 hPa NW 3.2 km/h 8 km/h 48% 0 mm
15:20 28.1 °C 14.7 °C 1009.7 hPa WSW 1.6 km/h 9.7 km/h 44% 0 mm
15:25 28 °C 16.9 °C 1009.7 hPa Calm   9.7 km/h 51% 0 mm
15:30 28 °C 16.9 °C 1009.7 hPa WNW 3.2 km/h 11.3 km/h 51% 0 mm
15:35 28.3 °C 14.9 °C 1009.7 hPa West 1.6 km/h 11.3 km/h 44% 0 mm
15:40 28.6 °C 16.6 °C 1009.7 hPa WSW 3.2 km/h 12.9 km/h 48% 0 mm
15:45 28.7 °C 16 °C 1009.7 hPa WNW 3.2 km/h 12.9 km/h 46% 0 mm
15:50 28.7 °C 15.6 °C 1009.7 hPa NW 1.6 km/h 9.7 km/h 45% 0 mm
15:55 28.9 °C 18.1 °C 1010 hPa NW 1.6 km/h 9.7 km/h 52% 0 mm
16:00 28.8 °C 19.2 °C 1010 hPa Calm   8 km/h 56% 0 mm
16:05 28.8 °C 17.1 °C 1010 hPa Calm   4.8 km/h 49% 0 mm
16:10 28.8 °C 18.3 °C 1010 hPa Calm   8 km/h 53% 0 mm
16:15 28.5 °C 16.4 °C 1009.7 hPa Calm   8 km/h 48% 0 mm
16:20 28.6 °C 17.4 °C 1009.7 hPa Calm   1.6 km/h 51% 0 mm
16:25 28.3 °C 18.4 °C 1009.7 hPa Calm   1.6 km/h 55% 0 mm
16:30 28.1 °C 19.6 °C 1009.7 hPa Calm     60% 0 mm
16:40 27.7 °C 19 °C 1009.7 hPa Calm     59% 0 mm
16:45 27.8 °C 17.3 °C 1009.7 hPa Calm     53% 0 mm
16:50 27.9 °C 19.2 °C 1009.7 hPa Calm   1.6 km/h 59% 0 mm
16:55 27.8 °C 18.6 °C 1009.7 hPa Calm   1.6 km/h 57% 0 mm
17:00 27.7 °C 18.7 °C 1009.7 hPa Calm     58% 0 mm
17:05 27.7 °C 18.2 °C 1009.7 hPa Calm     56% 0 mm
17:10 27.9 °C 16.6 °C 1009.7 hPa Calm   6.4 km/h 50% 0 mm
17:15 27.9 °C 16.5 °C 1009.7 hPa Calm   6.4 km/h 50% 0 mm
17:20 27.8 °C 18 °C 1009.7 hPa Calm   1.6 km/h 55% 0 mm
17:25 27.8 °C 17.6 °C 1009.7 hPa Calm   1.6 km/h 54% 0 mm
17:30 27.7 °C 17.2 °C 1009.7 hPa Calm   1.6 km/h 53% 0 mm
17:35 27.6 °C 18 °C 1009.7 hPa Calm   1.6 km/h 56% 0 mm
17:40 27.5 °C 18.8 °C 1009.7 hPa Calm     59% 0 mm
17:45 27.5 °C 18.2 °C 1009.7 hPa WSW 1.6 km/h 8 km/h 57% 0 mm
17:50 27.6 °C 17.4 °C 1009.7 hPa SW 1.6 km/h 8 km/h 54% 0 mm
17:55 27.6 °C 17.8 °C 1009.7 hPa Calm   8 km/h 55% 0 mm
18:00 27.6 °C 17.5 °C 1009.7 hPa SSW 1.6 km/h 6.4 km/h 54% 0 mm
18:05 27.5 °C 18.5 °C 1009.7 hPa Calm   6.4 km/h 58% 0 mm
18:10 27.3 °C 17.8 °C 1009.7 hPa SW 1.6 km/h 6.4 km/h 56% 0 mm
18:15 27.2 °C 18 °C 1009.7 hPa Calm   6.4 km/h 57% 0 mm
18:20 27.2 °C 18.4 °C 1009.7 hPa Calm   4.8 km/h 59% 0 mm
18:25 27.1 °C 18.1 °C 1009.7 hPa Calm   4.8 km/h 58% 0 mm
18:30 26.9 °C 19.1 °C 1009.4 hPa Calm   1.6 km/h 62% 0 mm
18:35 26.9 °C 18.3 °C 1009.7 hPa Calm   1.6 km/h 59% 0 mm
18:40 27 °C 18.6 °C 1009.4 hPa Calm   1.6 km/h 60% 0 mm
18:45 26.8 °C 17.8 °C 1009.7 hPa SW 3.2 km/h 6.4 km/h 58% 0 mm
18:50 26.4 °C 18.6 °C 1009.7 hPa Calm   6.4 km/h 62% 0 mm
18:55 26 °C 18.2 °C 1009.7 hPa Calm   4.8 km/h 62% 0 mm
19:00 25.6 °C 18.3 °C 1009.7 hPa Calm   4.8 km/h 64% 0 mm
19:05 25.3 °C 18.9 °C 1009.7 hPa Calm   1.6 km/h 68% 0 mm
19:10 25.1 °C 19.5 °C 1009.7 hPa Calm   1.6 km/h 71% 0 mm
19:15 24.9 °C 18.9 °C 1009.7 hPa Calm   6.4 km/h 69% 0 mm
19:20 25 °C 18.4 °C 1009.7 hPa Calm   6.4 km/h 67% 0 mm
19:25 25.1 °C 18.3 °C 1009.7 hPa Calm   3.2 km/h 66% 0 mm
19:30 25.2 °C 18.2 °C 1009.7 hPa Calm   3.2 km/h 65% 0 mm
19:40 25.1 °C 17.3 °C 1009.4 hPa Calm   1.6 km/h 62% 0 mm
19:45 24.9 °C 17.4 °C 1009.7 hPa Calm   1.6 km/h 63% 0 mm
19:50 24.7 °C 17.2 °C 1009.7 hPa Calm   1.6 km/h 63% 0 mm
19:55 24.4 °C 17.7 °C 1009.7 hPa Calm   6.4 km/h 66% 0 mm
20:00 24.2 °C 17.9 °C 1009.7 hPa Calm   6.4 km/h 68% 0 mm
20:10 23.5 °C 17 °C 1009.7 hPa Calm   4.8 km/h 67% 0 mm
20:15 23.2 °C 16.8 °C 1009.7 hPa Calm   1.6 km/h 67% 0 mm
20:20 22.9 °C 17.2 °C 1009.7 hPa Calm   1.6 km/h 70% 0 mm
20:30 22.4 °C 16.9 °C 1009.7 hPa Calm   1.6 km/h 71% 0 mm
20:35 22 °C 16.9 °C 1009.7 hPa Calm   1.6 km/h 73% 0 mm
20:40 21.5 °C 16.7 °C 1009.7 hPa Calm     74% 0 mm
20:45 21.2 °C 16.8 °C 1009.7 hPa Calm     76% 0 mm
20:50 20.8 °C 16.4 °C 1009.7 hPa SW 1.6 km/h 4.8 km/h 76% 0 mm
20:55 20.6 °C 16.7 °C 1010 hPa Calm   4.8 km/h 78% 0 mm
21:00 20.3 °C 16.6 °C 1010 hPa SW 1.6 km/h 4.8 km/h 79% 0 mm
21:05 20.2 °C 16.4 °C 1010 hPa Calm   4.8 km/h 79% 0 mm
21:10 20.2 °C 16.3 °C 1010 hPa SW 1.6 km/h 4.8 km/h 78% 0 mm
21:15 20.4 °C 16.1 °C 1010.4 hPa Calm   6.4 km/h 76% 0 mm
21:20 20.7 °C 16.1 °C 1010.4 hPa SW 1.6 km/h 8 km/h 75% 0 mm
21:25 20.9 °C 16.2 °C 1010.4 hPa SW 1.6 km/h 8 km/h 74% 0 mm
21:30 21.2 °C 16.3 °C 1010.4 hPa Calm   4.8 km/h 74% 0 mm
21:35 21.2 °C 16.2 °C 1010.4 hPa Calm   4.8 km/h 73% 0 mm
21:40 21.2 °C 16.2 °C 1010.4 hPa Calm   1.6 km/h 73% 0 mm
21:45 21 °C 16.4 °C 1010.4 hPa Calm   1.6 km/h 75% 0 mm
21:55 20.4 °C 16.3 °C 1010.4 hPa Calm   3.2 km/h 77% 0 mm
22:00 20.3 °C 16.1 °C 1010.4 hPa Calm   1.6 km/h 77% 0 mm
22:05 20.1 °C 15.9 °C 1010.4 hPa Calm   1.6 km/h 77% 0 mm
22:10 20 °C 16.1 °C 1010.4 hPa Calm   1.6 km/h 78% 0 mm
22:15 19.8 °C 15.8 °C 1010.4 hPa Calm   1.6 km/h 78% 0 mm
22:20 19.7 °C 15.5 °C 1010.4 hPa Calm   1.6 km/h 77% 0 mm
22:25 19.7 °C 15.6 °C 1010.4 hPa SW 1.6 km/h 4.8 km/h 77% 0 mm
22:30 19.7 °C 15.7 °C 1010.4 hPa Calm   4.8 km/h 78% 0 mm
22:40 19.6 °C 16 °C 1010.7 hPa Calm   1.6 km/h 80% 0 mm
22:45 19.4 °C 16.1 °C 1010.4 hPa Calm   1.6 km/h 81% 0 mm
22:50 19.5 °C 15.8 °C 1010.7 hPa Calm   6.4 km/h 79% 0 mm
22:55 19.7 °C 15.3 °C 1010.7 hPa Calm   6.4 km/h 76% 0 mm
23:00 19.9 °C 15.4 °C 1010.7 hPa Calm   4.8 km/h 75% 0 mm
23:05 20 °C 15.2 °C 1010.7 hPa Calm   1.6 km/h 74% 0 mm
23:10 19.9 °C 15.1 °C 1010.7 hPa SW 1.6 km/h 3.2 km/h 74% 0 mm
23:15 19.7 °C 14.6 °C 1010.4 hPa Calm   4.8 km/h 72% 0 mm
23:20 19.6 °C 14.4 °C 1010.7 hPa Calm   4.8 km/h 72% 0 mm
23:25 19.4 °C 14.3 °C 1010.4 hPa Calm   4.8 km/h 72% 0 mm
23:30 19.3 °C 13.9 °C 1010.4 hPa Calm   1.6 km/h 71% 0 mm
23:35 19 °C 13.8 °C 1010.4 hPa Calm   1.6 km/h 72% 0 mm
23:40 18.8 °C 13.6 °C 1010.4 hPa Calm   1.6 km/h 72% 0 mm
23:45 18.7 °C 13.5 °C 1010.4 hPa Calm   1.6 km/h 72% 0 mm
23:50 18.6 °C 13.7 °C 1010.4 hPa Calm   1.6 km/h 73% 0 mm
23:55 18.3 °C 13.4 °C 1010.4 hPa Calm   1.6 km/h 73% 0 mm
Westford Weather
Compliments of Weather Underground

 
 
Current Radar Loop:

Copyright © WestfordWeather.net 2007-2014. All rights reserved.